Terminal Aerodrome Forecast
Issued by NWS Sioux Falls, SD

Home | Current Version | Previous Version | Text Only | Print | Product List | Glossary Off
Versions: 1 2 3 4 5 6 7 8 9 10 11 12 13 14 15

000
FTUS43 KFSD 251123
TAFHON
TAF
KHON 251123Z 2512/2612 36005KT 4SM BR SCT003 OVC008
      TEMPO 2512/2515 BKN003
     FM251500 36006KT 6SM BR OVC008
     FM251800 01010KT P6SM OVC015
     FM252100 01011KT P6SM BKN030
     FM260000 36005KT P6SM SCT035 SCT120=

USA.gov is the U.S. government's official web portal to all federal, state and local government web resources and services.